Time;durP1;ratioP1;P1;durP2;ratioP2;P2;SDS_P1;SDS_P2;PMS_P1;PMS_P2;Temp;Humidity;BMP_temperature;BMP_pressure;BME280_temperature;BME280_humidity;BME280_pressure;Samples;Min_cycle;Max_cycle;Signal;HPM_P1;HPM_P2
2022/12/31 00:01:52;;;;;;;1.98;1.70;;;12.70;99.90;;;;;;5038283;28;20107;-72
2022/12/31 00:04:18;;;;;;;1.98;1.30;;;12.70;99.90;;;;;;5053799;28;20124;-73
2022/12/31 00:06:45;;;;;;;1.80;1.20;;;12.70;99.90;;;;;;5053990;28;20056;-73
2022/12/31 00:09:10;;;;;;;1.40;1.02;;;12.70;99.90;;;;;;5054245;28;20029;-72
2022/12/31 00:11:36;;;;;;;2.15;1.20;;;12.80;99.90;;;;;;5055190;28;20032;-73
2022/12/31 00:14:02;;;;;;;1.20;0.85;;;12.80;99.90;;;;;;5055657;28;20092;-73
2022/12/31 00:16:32;;;;;;;1.95;0.95;;;12.80;99.90;;;;;;5055688;28;20060;-73
2022/12/31 00:18:59;;;;;;;1.35;0.52;;;12.80;99.90;;;;;;5055266;28;20096;-73
2022/12/31 00:21:29;;;;;;;0.55;0.30;;;12.80;99.90;;;;;;5055686;28;20057;-72
2022/12/31 00:23:57;;;;;;;1.13;0.20;;;12.80;99.90;;;;;;5055838;28;20438;-72
2022/12/31 00:26:25;;;;;;;1.17;0.10;;;12.80;99.90;;;;;;5054095;28;20128;-72
2022/12/31 00:28:53;;;;;;;0.45;0.10;;;12.80;99.90;;;;;;5054711;28;20025;-72
2022/12/31 00:31:22;;;;;;;1.40;0.10;;;12.80;99.90;;;;;;5054279;28;20116;-72
2022/12/31 00:33:48;;;;;;;0.90;0.10;;;12.80;99.90;;;;;;5055287;28;20036;-73
2022/12/31 00:36:22;;;;;;;0.57;0.10;;;12.80;99.90;;;;;;5055211;28;20036;-72
2022/12/31 00:38:50;;;;;;;0.77;0.17;;;12.80;99.90;;;;;;5054844;28;20028;-72
2022/12/31 00:41:17;;;;;;;1.02;0.20;;;12.70;99.90;;;;;;5054275;28;20116;-71
2022/12/31 00:43:43;;;;;;;0.95;0.20;;;12.80;99.90;;;;;;5054914;28;20082;-71
2022/12/31 00:46:10;;;;;;;2.40;0.10;;;12.70;99.90;;;;;;5055777;28;20044;-72
2022/12/31 00:48:35;;;;;;;1.23;0.20;;;12.70;99.90;;;;;;5056602;28;20016;-72
2022/12/31 00:51:03;;;;;;;2.78;0.10;;;12.70;99.90;;;;;;5055425;28;20386;-72
2022/12/31 00:53:29;;;;;;;1.02;0.13;;;12.70;99.90;;;;;;5055400;28;20037;-72
2022/12/31 00:56:16;;;;;;;0.77;0.10;;;12.70;99.90;;;;;;5053904;28;20059;-72
2022/12/31 00:58:42;;;;;;;1.30;0.17;;;12.70;99.90;;;;;;5055055;28;20041;-71
2022/12/31 01:01:20;;;;;;;1.92;0.30;;;12.60;99.90;;;;;;5052666;28;20029;-71
2022/12/31 01:03:47;;;;;;;1.85;0.20;;;12.60;99.90;;;;;;5054707;28;20075;-72
2022/12/31 01:06:13;;;;;;;4.93;0.63;;;12.60;99.90;;;;;;5054463;28;20033;-72
2022/12/31 01:08:39;;;;;;;0.63;0.30;;;12.60;99.90;;;;;;5054610;28;20389;-72
2022/12/31 01:11:17;;;;;;;3.97;0.50;;;12.60;99.90;;;;;;5053609;28;20130;-73
2022/12/31 01:13:54;;;;;;;2.38;0.68;;;12.60;99.90;;;;;;5054695;28;20492;-72
2022/12/31 01:16:23;;;;;;;1.20;0.68;;;12.60;99.90;;;;;;5053587;28;20037;-72
2022/12/31 01:18:49;;;;;;;2.67;0.65;;;12.60;99.90;;;;;;5054880;28;20083;-72
2022/12/31 01:21:16;;;;;;;2.47;0.88;;;12.60;99.90;;;;;;5054376;28;20049;-71
2022/12/31 01:23:42;;;;;;;3.47;0.88;;;12.60;99.90;;;;;;5054057;28;20087;-71
2022/12/31 01:26:10;;;;;;;1.98;0.80;;;12.60;99.90;;;;;;5053261;28;20132;-72
2022/12/31 01:28:36;;;;;;;1.77;0.95;;;12.60;99.90;;;;;;5054332;28;20021;-72
2022/12/31 01:31:06;;;;;;;2.78;1.02;;;12.60;99.90;;;;;;5054074;28;20028;-72
2022/12/31 01:33:33;;;;;;;1.50;0.88;;;12.60;99.90;;;;;;5053707;28;20033;-71
2022/12/31 01:36:08;;;;;;;2.33;0.88;;;12.60;99.90;;;;;;5054336;28;20033;-71
2022/12/31 01:38:35;;;;;;;2.75;0.80;;;12.60;99.90;;;;;;5052942;28;20220;-72
2022/12/31 01:41:01;;;;;;;2.33;1.25;;;12.60;99.90;;;;;;5052655;28;20119;-71
2022/12/31 01:43:55;;;;;;;2.03;1.00;;;12.60;99.90;;;;;;5052553;28;20033;-71
2022/12/31 01:46:46;;;;;;;1.48;0.95;;;12.60;99.90;;;;;;5053284;28;20032;-71
2022/12/31 01:49:15;;;;;;;2.50;1.00;;;12.60;99.90;;;;;;5053702;28;20021;-72
2022/12/31 01:51:43;;;;;;;1.27;0.90;;;12.60;99.90;;;;;;5053460;28;20435;-70
2022/12/31 01:54:11;;;;;;;2.70;1.02;;;12.60;99.90;;;;;;5053466;28;20021;-69
2022/12/31 01:56:39;;;;;;;1.92;1.02;;;12.60;99.90;;;;;;5052968;28;20037;-69
2022/12/31 01:59:09;;;;;;;1.67;1.10;;;12.70;99.90;;;;;;5052310;28;20083;-69
2022/12/31 02:01:37;;;;;;;1.70;1.00;;;12.60;99.90;;;;;;5052284;28;20076;-70
2022/12/31 02:04:09;;;;;;;1.60;1.10;;;12.60;99.90;;;;;;5052354;28;20051;-69
2022/12/31 02:06:47;;;;;;;2.63;1.00;;;12.60;99.90;;;;;;5053600;28;20029;-72
2022/12/31 02:09:13;;;;;;;2.03;0.90;;;12.60;99.90;;;;;;5052202;28;20037;-70
2022/12/31 02:11:39;;;;;;;1.92;0.80;;;12.60;99.90;;;;;;5036041;28;20045;-70
2022/12/31 02:14:10;;;;;;;1.10;0.52;;;12.60;99.90;;;;;;5053264;28;20493;-70
2022/12/31 02:17:15;;;;;;;2.55;0.68;;;12.50;99.90;;;;;;5052389;28;20032;-70
2022/12/31 02:19:59;;;;;;;2.92;0.93;;;12.50;99.90;;;;;;5053737;28;20025;-70
2022/12/31 02:22:40;;;;;;;1.85;1.00;;;12.50;99.90;;;;;;5053936;28;20053;-70
2022/12/31 02:25:36;;;;;;;4.40;1.50;;;12.50;99.90;;;;;;5051539;28;20493;-71
2022/12/31 02:28:40;;;;;;;3.15;1.40;;;12.50;99.90;;;;;;5035569;28;20021;-70
2022/12/31 02:31:22;;;;;;;4.05;2.00;;;12.50;99.90;;;;;;5053457;28;20028;-71
2022/12/31 02:33:55;;;;;;;2.63;1.70;;;12.50;99.90;;;;;;5053880;28;20082;-70
2022/12/31 02:36:30;;;;;;;4.50;1.58;;;12.50;99.90;;;;;;5053299;28;20029;-70
2022/12/31 02:38:57;;;;;;;3.47;1.30;;;12.50;99.90;;;;;;5052960;28;20037;-70
2022/12/31 02:44:23;;;;;;;2.97;1.40;;;12.50;99.90;;;;;;5053057;28;20187;-71
2022/12/31 02:46:58;;;;;;;4.82;1.10;;;12.50;99.90;;;;;;5052761;28;20056;-70
2022/12/31 02:49:48;;;;;;;2.85;1.73;;;12.50;99.90;;;;;;5052454;28;20083;-70
2022/12/31 02:52:23;;;;;;;2.17;1.35;;;12.50;99.90;;;;;;5052575;28;20033;-70
2022/12/31 02:55:04;;;;;;;1.65;0.90;;;12.50;99.90;;;;;;5053161;28;20033;-70
2022/12/31 02:57:39;;;;;;;2.70;1.10;;;12.50;99.90;;;;;;5052109;28;20036;-70
2022/12/31 03:02:54;;;;;;;3.20;0.73;;;12.50;99.90;;;;;;5053330;28;20028;-70
2022/12/31 03:05:29;;;;;;;4.13;0.60;;;12.50;99.90;;;;;;5051949;28;20410;-70
2022/12/31 03:07:54;;;;;;;2.22;0.70;;;12.40;99.90;;;;;;5052317;28;20500;-70
2022/12/31 03:10:20;;;;;;;2.28;0.63;;;12.40;99.90;;;;;;5052184;28;20033;-70
2022/12/31 03:12:47;;;;;;;4.60;0.68;;;12.40;99.90;;;;;;5051389;28;20025;-70
2022/12/31 03:15:26;;;;;;;2.05;0.63;;;12.40;99.90;;;;;;5051160;28;20029;-70
2022/12/31 03:18:02;;;;;;;3.38;0.90;;;12.40;99.90;;;;;;5052655;28;20485;-70
2022/12/31 03:23:32;;;;;;;2.05;0.70;;;12.40;99.90;;;;;;5052155;28;20044;-70
2022/12/31 03:25:59;;;;;;;3.42;0.77;;;12.40;99.90;;;;;;5055246;28;20473;-70
2022/12/31 03:28:27;;;;;;;3.10;0.90;;;12.40;99.90;;;;;;5055342;28;20475;-70
2022/12/31 03:30:58;;;;;;;5.22;0.68;;;12.40;99.90;;;;;;5056137;28;20083;-70
2022/12/31 03:33:24;;;;;;;1.55;0.50;;;12.30;99.90;;;;;;5056077;28;20104;-70
2022/12/31 03:35:52;;;;;;;4.15;0.77;;;12.30;99.90;;;;;;5056093;28;20066;-70
2022/12/31 03:38:18;;;;;;;1.77;0.40;;;12.30;99.90;;;;;;5056401;28;20066;-71
2022/12/31 03:40:47;;;;;;;2.92;0.70;;;12.30;99.90;;;;;;5056004;28;20040;-70
2022/12/31 03:43:13;;;;;;;2.22;0.50;;;12.30;99.90;;;;;;5054763;28;20028;-71
2022/12/31 03:45:39;;;;;;;3.03;0.60;;;12.20;99.90;;;;;;5055899;28;20033;-71
2022/12/31 03:48:06;;;;;;;3.63;1.13;;;12.20;99.90;;;;;;5056298;28;20040;-72
2022/12/31 03:50:32;;;;;;;2.88;0.98;;;12.20;99.90;;;;;;5055467;28;20493;-71
2022/12/31 03:52:58;;;;;;;5.57;1.80;;;12.20;99.90;;;;;;5055876;28;20025;-71
2022/12/31 03:55:24;;;;;;;3.08;1.20;;;12.20;99.90;;;;;;5056021;28;20032;-71
2022/12/31 03:57:50;;;;;;;5.30;1.80;;;12.20;99.90;;;;;;5056061;28;20025;-71
2022/12/31 04:00:18;;;;;;;4.72;1.90;;;12.30;99.90;;;;;;5055307;28;20029;-71
2022/12/31 04:02:45;;;;;;;4.20;2.00;;;12.30;99.90;;;;;;5054427;28;20108;-70
2022/12/31 04:05:11;;;;;;;3.78;2.15;;;12.20;99.90;;;;;;5055384;28;20434;-71
2022/12/31 04:07:37;;;;;;;3.95;2.65;;;12.30;99.90;;;;;;5054688;28;20109;-71
2022/12/31 04:10:05;;;;;;;5.65;2.80;;;12.30;99.90;;;;;;5055576;28;20025;-71
2022/12/31 04:12:31;;;;;;;7.00;3.30;;;12.30;99.90;;;;;;5059837;28;20382;-71
2022/12/31 04:14:57;;;;;;;3.47;3.17;;;12.30;99.90;;;;;;5059804;28;20048;-71
2022/12/31 04:17:23;;;;;;;8.80;4.32;;;12.20;99.90;;;;;;5055966;28;20033;-71
2022/12/31 04:19:49;;;;;;;6.05;3.83;;;12.20;99.90;;;;;;5055688;28;20040;-71
2022/12/31 04:22:14;;;;;;;5.40;4.10;;;12.20;99.90;;;;;;5054299;28;20053;-71
2022/12/31 04:24:42;;;;;;;4.78;4.13;;;12.20;99.90;;;;;;5054787;28;20029;-71
2022/12/31 04:27:08;;;;;;;4.72;3.53;;;12.20;99.90;;;;;;5055785;28;20120;-70
2022/12/31 04:29:34;;;;;;;6.05;3.88;;;12.20;99.90;;;;;;5054161;28;20078;-70
2022/12/31 04:31:59;;;;;;;4.07;3.40;;;12.20;99.90;;;;;;5054756;28;20099;-71
2022/12/31 04:34:25;;;;;;;4.18;3.40;;;12.30;99.90;;;;;;5054066;28;20477;-70
2022/12/31 04:36:51;;;;;;;4.10;3.22;;;12.20;99.90;;;;;;5053075;28;20466;-71
2022/12/31 04:39:16;;;;;;;5.57;3.55;;;12.30;99.90;;;;;;5055727;28;20470;-70
2022/12/31 04:41:42;;;;;;;4.70;3.70;;;12.30;99.90;;;;;;5055788;28;20029;-70
2022/12/31 04:44:08;;;;;;;4.25;3.80;;;12.30;99.90;;;;;;5021006;28;20029;-70
2022/12/31 04:46:34;;;;;;;4.40;3.95;;;12.20;99.90;;;;;;5053525;28;20032;-70
2022/12/31 04:49:01;;;;;;;4.70;4.20;;;12.30;99.90;;;;;;5054755;28;20025;-70
2022/12/31 04:51:28;;;;;;;4.00;3.70;;;12.30;99.90;;;;;;5054933;28;20032;-70
2022/12/31 04:53:55;;;;;;;100.68;6.75;;;12.30;99.90;;;;;;5053869;28;20028;-70
2022/12/31 04:56:21;;;;;;;28.15;4.72;;;12.30;99.90;;;;;;5054824;28;20163;-70
2022/12/31 04:58:46;;;;;;;5.57;4.57;;;12.30;99.90;;;;;;5054739;28;20100;-70
2022/12/31 05:01:13;;;;;;;4.22;3.83;;;12.30;99.90;;;;;;5036921;28;20448;-70
2022/12/31 05:03:40;;;;;;;3.70;3.40;;;12.30;99.90;;;;;;5054516;28;20037;-70
2022/12/31 05:06:10;;;;;;;4.85;3.97;;;12.40;99.90;;;;;;5054856;28;20429;-70
2022/12/31 05:08:35;;;;;;;3.95;3.65;;;12.40;99.90;;;;;;5054488;28;20029;-71
2022/12/31 05:11:01;;;;;;;3.65;3.35;;;12.40;99.90;;;;;;5053159;28;20056;-70
2022/12/31 05:13:27;;;;;;;8.18;3.90;;;12.40;99.90;;;;;;5054450;28;20078;-70
2022/12/31 05:15:54;;;;;;;3.45;2.95;;;12.40;99.90;;;;;;5053833;28;20090;-70
2022/12/31 05:18:20;;;;;;;4.28;3.25;;;12.30;99.90;;;;;;5053411;28;20052;-71
2022/12/31 05:20:46;;;;;;;2.67;2.47;;;12.30;99.90;;;;;;5053297;28;20079;-70
2022/12/31 05:23:13;;;;;;;3.55;2.90;;;12.40;99.90;;;;;;5054247;28;20027;-70
2022/12/31 05:25:41;;;;;;;2.65;2.15;;;12.30;99.90;;;;;;5054207;28;20044;-70
2022/12/31 05:28:07;;;;;;;2.60;2.40;;;12.40;99.90;;;;;;5054091;28;20113;-70
2022/12/31 05:30:33;;;;;;;3.40;1.70;;;12.40;99.90;;;;;;5054444;28;20052;-70
2022/12/31 05:32:59;;;;;;;1.50;1.05;;;12.40;99.90;;;;;;5037302;28;20074;-71
2022/12/31 05:35:25;;;;;;;1.33;1.02;;;12.40;99.90;;;;;;5054424;28;20126;-71
2022/12/31 05:37:50;;;;;;;0.85;0.73;;;12.40;99.90;;;;;;5053172;28;20037;-71
2022/12/31 05:40:16;;;;;;;1.00;0.30;;;12.40;99.90;;;;;;5053544;28;20040;-70
2022/12/31 05:42:42;;;;;;;0.60;0.30;;;12.40;99.90;;;;;;5052603;28;20151;-72
2022/12/31 05:45:08;;;;;;;0.55;0.20;;;12.40;99.90;;;;;;5054146;28;20041;-71
2022/12/31 05:47:34;;;;;;;0.30;0.20;;;12.40;99.90;;;;;;5052720;28;20035;-71
2022/12/31 05:49:59;;;;;;;0.30;0.15;;;12.40;99.90;;;;;;5054612;28;20103;-71
2022/12/31 05:52:25;;;;;;;0.20;0.10;;;12.40;99.90;;;;;;5054902;28;20025;-71
2022/12/31 05:54:51;;;;;;;0.22;0.10;;;12.40;99.90;;;;;;5037613;28;20029;-71
2022/12/31 05:57:16;;;;;;;0.30;0.10;;;12.40;99.90;;;;;;5057524;28;20081;-71
2022/12/31 05:59:42;;;;;;;0.35;0.20;;;12.40;99.90;;;;;;5054934;28;20465;-71
2022/12/31 06:02:08;;;;;;;0.50;0.20;;;12.40;99.90;;;;;;5052354;28;20029;-71
2022/12/31 06:04:33;;;;;;;0.30;0.20;;;12.40;99.90;;;;;;5053970;28;20037;-70
2022/12/31 06:06:59;;;;;;;0.30;0.20;;;12.50;99.90;;;;;;5053552;28;20025;-71
2022/12/31 06:09:25;;;;;;;0.45;0.20;;;12.40;99.90;;;;;;5053795;28;20033;-71
2022/12/31 06:11:50;;;;;;;0.47;0.22;;;12.40;99.90;;;;;;5053525;28;20422;-71
2022/12/31 06:14:16;;;;;;;0.40;0.30;;;12.50;99.90;;;;;;5052011;28;20469;-71
2022/12/31 06:16:42;;;;;;;3.70;0.20;;;12.40;99.90;;;;;;5053934;28;20069;-71
2022/12/31 06:19:08;;;;;;;0.45;0.20;;;12.50;99.90;;;;;;5052210;28;20109;-71
2022/12/31 06:21:34;;;;;;;1.35;0.75;;;12.40;99.90;;;;;;5053323;28;20386;-71
2022/12/31 06:23:59;;;;;;;1.30;0.40;;;12.50;99.90;;;;;;5052451;28;20025;-71
2022/12/31 06:26:26;;;;;;;0.63;0.40;;;12.50;99.90;;;;;;5053124;28;20036;-71
2022/12/31 06:28:52;;;;;;;0.50;0.30;;;12.50;99.90;;;;;;5053763;28;20127;-70
2022/12/31 06:31:17;;;;;;;2.10;0.40;;;12.50;99.90;;;;;;5035898;28;20454;-71
2022/12/31 06:33:45;;;;;;;0.43;0.35;;;12.50;99.90;;;;;;5052025;28;20056;-71
2022/12/31 06:36:13;;;;;;;0.85;0.40;;;12.50;99.90;;;;;;5052418;28;20465;-71
2022/12/31 06:38:41;;;;;;;1.02;0.40;;;12.50;99.90;;;;;;5051660;28;20435;-71
2022/12/31 06:41:12;;;;;;;0.40;0.30;;;12.50;99.90;;;;;;5051708;28;20378;-70
2022/12/31 06:43:38;;;;;;;0.40;0.30;;;12.50;99.90;;;;;;5053181;28;20036;-71
2022/12/31 06:46:07;;;;;;;0.95;0.60;;;12.50;99.90;;;;;;5051741;28;20044;-70
2022/12/31 06:48:33;;;;;;;0.50;0.20;;;12.50;99.90;;;;;;5052777;28;20511;-71
2022/12/31 06:51:07;;;;;;;0.77;0.30;;;12.60;99.90;;;;;;5051963;28;20033;-70
2022/12/31 06:53:33;;;;;;;0.40;0.10;;;12.60;99.90;;;;;;5053394;28;20033;-70
2022/12/31 06:56:13;;;;;;;0.40;0.20;;;12.70;99.90;;;;;;5053427;28;20432;-70
2022/12/31 06:58:40;;;;;;;0.30;0.20;;;12.70;99.90;;;;;;5053705;28;20082;-70
2022/12/31 07:01:24;;;;;;;0.70;0.15;;;12.80;99.90;;;;;;5038481;28;20036;-70
2022/12/31 07:04:20;;;;;;;1.27;0.20;;;12.80;99.90;;;;;;5057215;28;20103;-71
2022/12/31 07:06:49;;;;;;;1.13;0.30;;;12.90;99.90;;;;;;5056905;28;20037;-72
2022/12/31 07:09:20;;;;;;;1.67;0.30;;;13.00;99.90;;;;;;5056876;28;20059;-70
2022/12/31 07:11:59;;;;;;;0.68;0.20;;;13.00;99.90;;;;;;5057123;28;20037;-71
2022/12/31 07:14:51;;;;;;;2.33;0.30;;;13.10;99.90;;;;;;5056493;28;20032;-70
2022/12/31 07:17:42;;;;;;;0.85;0.30;;;13.10;99.90;;;;;;5056012;28;20025;-71
2022/12/31 07:20:13;;;;;;;1.02;0.43;;;13.20;99.90;;;;;;5056505;28;20032;-71
2022/12/31 07:22:39;;;;;;;0.60;0.40;;;13.20;99.90;;;;;;5056177;28;20477;-70
2022/12/31 07:25:06;;;;;;;1.60;0.80;;;13.20;99.90;;;;;;5057199;28;20160;-71
2022/12/31 07:28:19;;;;;;;2.53;0.70;;;13.20;99.90;;;;;;5056960;28;20102;-71
2022/12/31 07:31:19;;;;;;;2.13;0.90;;;13.30;99.90;;;;;;4995439;28;20022;-69
2022/12/31 07:33:58;;;;;;;1.38;0.90;;;13.30;99.90;;;;;;5023370;28;20037;-70
2022/12/31 07:36:48;;;;;;;2.55;1.05;;;13.30;99.90;;;;;;5057650;28;20376;-70
2022/12/31 07:39:20;;;;;;;2.13;1.23;;;13.30;99.90;;;;;;5057863;28;20048;-70
2022/12/31 07:41:51;;;;;;;2.17;1.27;;;13.20;99.90;;;;;;5057185;28;20044;-70
2022/12/31 07:44:42;;;;;;;1.58;1.35;;;13.30;99.90;;;;;;5056528;28;20140;-70
2022/12/31 07:47:23;;;;;;;4.88;2.50;;;13.30;99.90;;;;;;5055375;28;20037;-70
2022/12/31 07:49:49;;;;;;;2.40;2.20;;;13.40;99.90;;;;;;5055851;28;20083;-70
2022/12/31 07:52:15;;;;;;;1.98;1.88;;;13.30;99.90;;;;;;5056023;28;20032;-71
2022/12/31 07:54:41;;;;;;;2.83;1.80;;;13.30;99.90;;;;;;5038386;28;20432;-70
2022/12/31 07:57:12;;;;;;;26.88;3.08;;;13.40;99.90;;;;;;5055958;28;20029;-71
2022/12/31 08:00:10;;;;;;;5.88;2.08;;;13.40;99.90;;;;;;5055229;28;20060;-71
2022/12/31 08:02:55;;;;;;;2.65;2.10;;;13.40;99.90;;;;;;5056131;28;20031;-71
2022/12/31 08:05:30;;;;;;;1.88;1.63;;;13.30;99.90;;;;;;5055948;28;20053;-77
2022/12/31 08:08:08;;;;;;;2.63;1.52;;;13.40;99.90;;;;;;5055659;28;20071;-73
2022/12/31 08:10:55;;;;;;;3.40;1.27;;;13.40;99.90;;;;;;5055161;28;20051;-74
2022/12/31 08:13:21;;;;;;;1.85;1.08;;;13.40;99.90;;;;;;5054898;28;20029;-70
2022/12/31 08:15:47;;;;;;;2.45;0.60;;;13.50;99.90;;;;;;5054666;28;20029;-72
2022/12/31 08:18:13;;;;;;;1.25;0.20;;;13.50;99.90;;;;;;5054462;28;20033;-72
2022/12/31 08:20:46;;;;;;;1.45;0.20;;;13.50;99.90;;;;;;5055348;28;20067;-70
2022/12/31 08:23:21;;;;;;;1.15;0.10;;;13.50;99.90;;;;;;5055394;28;20021;-73
2022/12/31 08:26:02;;;;;;;1.00;0.05;;;13.40;99.90;;;;;;5054505;28;20033;-73
2022/12/31 08:28:52;;;;;;;0.75;0.10;;;13.40;99.90;;;;;;5054288;28;20055;-74
2022/12/31 08:31:32;;;;;;;0.80;0.10;;;13.40;99.90;;;;;;5055474;28;20057;-72
2022/12/31 08:34:28;;;;;;;1.38;0.20;;;13.40;99.90;;;;;;5055096;28;20029;-71
2022/12/31 08:37:14;;;;;;;1.38;0.10;;;13.30;99.90;;;;;;5054552;28;20033;-72
2022/12/31 08:39:59;;;;;;;2.10;0.10;;;13.30;99.90;;;;;;5053735;28;20029;-73
2022/12/31 08:42:40;;;;;;;2.70;0.10;;;13.30;99.90;;;;;;5054550;28;20040;-73
2022/12/31 08:45:40;;;;;;;2.33;0.38;;;13.30;99.90;;;;;;5055304;28;20033;-73
2022/12/31 08:48:29;;;;;;;3.15;0.28;;;13.30;99.90;;;;;;5046813;28;20033;-73
2022/12/31 08:50:55;;;;;;;1.42;0.20;;;13.30;99.90;;;;;;5054754;28;20033;-76
2022/12/31 08:53:21;;;;;;;1.33;0.20;;;13.20;99.90;;;;;;5053567;28;20063;-75
2022/12/31 08:55:51;;;;;;;1.02;0.25;;;13.20;99.90;;;;;;5053537;28;20037;-74
2022/12/31 08:58:41;;;;;;;0.82;0.10;;;13.30;99.90;;;;;;5053708;28;20115;-74
2022/12/31 09:01:07;;;;;;;0.50;0.10;;;13.30;99.90;;;;;;5054798;28;20090;-75
2022/12/31 09:03:54;;;;;;;1.85;0.20;;;13.30;99.90;;;;;;5053268;28;20473;-75
2022/12/31 09:06:36;;;;;;;2.72;0.17;;;13.30;99.90;;;;;;5054392;28;20040;-75
2022/12/31 09:09:17;;;;;;;0.52;0.13;;;13.30;99.90;;;;;;5054805;28;20021;-76
2022/12/31 09:11:56;;;;;;;2.75;0.10;;;13.30;99.90;;;;;;5053229;28;20128;-76
2022/12/31 09:14:45;;;;;;;1.73;0.60;;;13.30;99.90;;;;;;5055815;28;20028;-76
2022/12/31 09:17:41;;;;;;;3.20;1.33;;;13.30;99.90;;;;;;5059357;28;20024;-75
2022/12/31 09:20:15;;;;;;;5.05;2.60;;;13.40;99.90;;;;;;5065267;28;20116;-75
2022/12/31 09:22:41;;;;;;;5.32;2.50;;;13.30;99.90;;;;;;5058624;28;20052;-74
2022/12/31 09:25:11;;;;;;;3.78;1.25;;;13.40;99.90;;;;;;5055486;28;20037;-74
2022/12/31 09:27:42;;;;;;;3.50;1.08;;;13.40;99.90;;;;;;5054312;28;20063;-72
2022/12/31 09:30:11;;;;;;;2.65;0.80;;;13.40;99.90;;;;;;5054073;28;20116;-74
2022/12/31 09:32:50;;;;;;;1.60;0.30;;;13.50;99.90;;;;;;5053383;28;20036;-74
2022/12/31 09:35:38;;;;;;;1.52;0.30;;;13.40;99.90;;;;;;5053563;28;20116;-73
2022/12/31 09:38:11;;;;;;;2.35;0.57;;;13.50;99.90;;;;;;5054025;28;20037;-72
2022/12/31 09:41:14;;;;;;;2.53;0.57;;;13.50;99.90;;;;;;5054397;28;20025;-71
2022/12/31 09:43:49;;;;;;;1.80;0.50;;;13.50;99.90;;;;;;5037247;28;20029;-71
2022/12/31 09:46:37;;;;;;;1.42;0.70;;;13.60;99.90;;;;;;5053983;28;20033;-73
2022/12/31 09:49:21;;;;;;;2.05;0.50;;;13.60;99.90;;;;;;5053515;28;20104;-73
2022/12/31 09:52:27;;;;;;;3.47;0.40;;;13.60;99.90;;;;;;5052345;28;20461;-71
2022/12/31 09:55:35;;;;;;;3.72;0.30;;;13.60;99.90;;;;;;5024005;28;20030;-73
2022/12/31 09:58:14;;;;;;;0.85;0.30;;;13.60;99.90;;;;;;5008820;28;20106;-73
2022/12/31 10:00:51;;;;;;;2.65;0.55;;;13.70;99.90;;;;;;5053653;28;20082;-72
2022/12/31 10:03:38;;;;;;;3.85;0.50;;;13.80;99.90;;;;;;5052196;28;20025;-72
2022/12/31 10:06:09;;;;;;;2.95;0.30;;;13.80;99.90;;;;;;5053251;28;20029;-72
2022/12/31 10:09:12;;;;;;;2.35;0.40;;;13.80;99.90;;;;;;5052233;28;20035;-72
2022/12/31 10:12:18;;;;;;;2.47;0.55;;;14.00;99.90;;;;;;5053245;28;20454;-73
2022/12/31 10:15:06;;;;;;;4.18;0.50;;;14.10;99.90;;;;;;5053297;28;20052;-69
2022/12/31 10:17:44;;;;;;;5.00;0.63;;;14.10;99.90;;;;;;5042434;28;20041;-69
2022/12/31 10:20:40;;;;;;;2.95;0.30;;;14.20;99.90;;;;;;5052886;28;20032;-69
2022/12/31 10:23:18;;;;;;;5.45;0.68;;;14.30;99.90;;;;;;5053495;28;20045;-71
2022/12/31 10:26:18;;;;;;;1.88;0.30;;;14.30;99.90;;;;;;5052733;28;20466;-71
2022/12/31 10:28:58;;;;;;;3.42;0.40;;;14.40;99.90;;;;;;5053090;28;20446;-71
2022/12/31 10:31:45;;;;;;;4.95;0.70;;;14.40;99.90;;;;;;5052968;28;20029;-71
2022/12/31 10:34:21;;;;;;;3.08;0.28;;;14.50;99.90;;;;;;5052987;28;20457;-72
2022/12/31 10:37:19;;;;;;;2.00;0.50;;;14.50;99.90;;;;;;5053310;28;20051;-72
2022/12/31 10:40:07;;;;;;;4.35;0.30;;;14.60;99.90;;;;;;5052899;28;20132;-71
2022/12/31 10:43:01;;;;;;;3.55;0.55;;;14.70;99.90;;;;;;5012769;28;20481;-71
2022/12/31 10:45:35;;;;;;;1.98;0.77;;;14.70;99.90;;;;;;5052594;28;20455;-71
2022/12/31 10:48:23;;;;;;;3.75;0.65;;;14.70;99.90;;;;;;5052767;28;20029;-71
2022/12/31 10:51:07;;;;;;;3.38;0.40;;;14.70;99.90;;;;;;5053259;28;20029;-72
2022/12/31 10:53:36;;;;;;;3.03;0.40;;;14.70;99.90;;;;;;5054020;28;20070;-71
2022/12/31 10:56:14;;;;;;;2.90;0.40;;;14.70;99.90;;;;;;5056969;28;20059;-71
2022/12/31 10:59:17;;;;;;;3.53;0.40;;;14.70;99.90;;;;;;5058683;28;20029;-71
2022/12/31 11:01:51;;;;;;;5.57;0.40;;;14.70;99.90;;;;;;5057059;28;20021;-73
2022/12/31 11:04:36;;;;;;;3.50;0.60;;;14.80;99.90;;;;;;5053465;28;20025;-74
2022/12/31 11:07:21;;;;;;;6.43;0.40;;;14.80;99.90;;;;;;5052993;28;20108;-75
2022/12/31 11:10:17;;;;;;;4.03;0.45;;;14.80;99.90;;;;;;5051814;28;20032;-75
2022/12/31 11:13:01;;;;;;;5.72;0.60;;;14.80;99.90;;;;;;5051900;28;20033;-74
2022/12/31 11:15:27;;;;;;;4.00;1.08;;;14.80;99.90;;;;;;5052701;28;20029;-74
2022/12/31 11:18:06;;;;;;;5.53;0.63;;;14.90;99.90;;;;;;5051792;28;20032;-73
2022/12/31 11:21:08;;;;;;;5.20;0.60;;;14.80;99.90;;;;;;5051835;28;20029;-73
2022/12/31 11:23:33;;;;;;;4.45;0.90;;;14.90;99.90;;;;;;5051123;28;20077;-73
2022/12/31 11:26:18;;;;;;;5.93;1.02;;;14.80;99.90;;;;;;5053083;28;20060;-72
2022/12/31 11:29:13;;;;;;;4.70;0.60;;;14.90;99.90;;;;;;5052129;28;20025;-73
2022/12/31 11:31:59;;;;;;;6.63;0.77;;;14.80;99.90;;;;;;5052947;28;20029;-73
2022/12/31 11:34:53;;;;;;;8.43;1.00;;;14.80;99.90;;;;;;5051164;28;20033;-74
2022/12/31 11:37:43;;;;;;;6.22;0.95;;;14.80;99.90;;;;;;5052550;28;20108;-74
2022/12/31 11:40:36;;;;;;;4.72;1.20;;;14.90;99.90;;;;;;5052548;28;20025;-73
2022/12/31 11:43:26;;;;;;;6.60;1.50;;;14.90;99.90;;;;;;5051717;28;20052;-74
2022/12/31 11:46:15;;;;;;;6.68;0.93;;;14.90;99.90;;;;;;5052398;28;20075;-74
2022/12/31 11:48:52;;;;;;;7.18;1.23;;;14.90;99.90;;;;;;5054986;28;20080;-74
2022/12/31 11:51:33;;;;;;;4.07;0.88;;;14.90;99.90;;;;;;5055964;28;20036;-74
2022/12/31 11:54:23;;;;;;;3.92;0.65;;;14.90;99.90;;;;;;5054483;28;20029;-74
2022/12/31 11:57:29;;;;;;;4.60;0.68;;;14.90;99.90;;;;;;5048572;28;20033;-74
2022/12/31 12:00:01;;;;;;;4.95;0.60;;;15.00;99.90;;;;;;5036564;28;20052;-74
2022/12/31 12:02:30;;;;;;;4.68;0.60;;;15.00;99.90;;;;;;5055665;28;20083;-71
2022/12/31 12:04:59;;;;;;;4.35;0.60;;;15.10;99.90;;;;;;5055144;28;20100;-72
2022/12/31 12:07:26;;;;;;;5.05;0.60;;;15.20;99.90;;;;;;5055425;28;20028;-71
2022/12/31 12:09:54;;;;;;;4.80;0.60;;;15.20;99.90;;;;;;5054136;28;20078;-71
2022/12/31 12:12:20;;;;;;;4.47;0.68;;;15.20;99.90;;;;;;5055498;28;20024;-74
2022/12/31 12:14:51;;;;;;;4.80;0.50;;;15.30;99.90;;;;;;5037597;28;20055;-71
2022/12/31 12:17:30;;;;;;;7.30;0.63;;;15.30;99.90;;;;;;5054876;28;20319;-71
2022/12/31 12:20:00;;;;;;;5.68;0.80;;;15.40;99.90;;;;;;5055679;28;20025;-72
2022/12/31 12:22:29;;;;;;;7.85;1.35;;;15.40;99.90;;;;;;5055120;28;20053;-71
2022/12/31 12:25:14;;;;;;;4.28;0.38;;;15.40;99.90;;;;;;5055164;28;20021;-72
2022/12/31 12:27:40;;;;;;;3.17;0.32;;;15.40;99.90;;;;;;5053995;28;20457;-71
2022/12/31 12:30:27;;;;;;;6.60;0.95;;;15.50;99.90;;;;;;5055091;28;20103;-72
2022/12/31 12:32:54;;;;;;;3.67;0.55;;;15.50;99.90;;;;;;5055572;28;20052;-71
2022/12/31 12:35:26;;;;;;;6.78;0.98;;;15.50;99.90;;;;;;5054533;28;20036;-71
2022/12/31 12:38:03;;;;;;;6.20;0.90;;;15.40;99.90;;;;;;5056328;28;20029;-71
2022/12/31 12:40:30;;;;;;;3.63;0.65;;;15.40;99.90;;;;;;5056084;28;20029;-71
2022/12/31 12:42:56;;;;;;;5.80;0.77;;;15.40;99.90;;;;;;5055397;28;20048;-71
2022/12/31 12:45:35;;;;;;;3.95;0.65;;;15.30;99.90;;;;;;5040171;28;20037;-72
2022/12/31 12:48:17;;;;;;;8.00;0.70;;;15.30;99.90;;;;;;5058185;28;20480;-71
2022/12/31 12:50:46;;;;;;;7.95;1.02;;;15.30;99.90;;;;;;5055619;28;20465;-71
2022/12/31 12:53:42;;;;;;;5.30;1.00;;;15.20;99.90;;;;;;5054779;28;20036;-70
2022/12/31 12:56:36;;;;;;;7.30;1.58;;;15.20;99.90;;;;;;5054723;28;20044;-70
2022/12/31 12:59:04;;;;;;;4.70;0.90;;;15.20;99.90;;;;;;5054049;28;20056;-71
2022/12/31 13:01:52;;;;;;;6.28;0.95;;;15.20;99.90;;;;;;5054596;28;20033;-70
2022/12/31 13:04:37;;;;;;;9.07;1.20;;;15.20;99.90;;;;;;5053328;28;20040;-71
2022/12/31 13:07:25;;;;;;;4.40;0.73;;;15.10;99.90;;;;;;5054698;28;20472;-72
2022/12/31 13:10:45;;;;;;;3.63;0.52;;;15.20;99.90;;;;;;5054516;28;20033;-71
2022/12/31 13:13:14;;;;;;;3.50;0.60;;;15.10;99.90;;;;;;4976381;28;20141;-70
2022/12/31 13:16:03;;;;;;;4.97;0.70;;;15.10;99.90;;;;;;4992742;28;20109;-71
2022/12/31 13:18:43;;;;;;;4.60;0.85;;;15.10;99.90;;;;;;5034143;28;20036;-71
2022/12/31 13:21:21;;;;;;;3.80;0.75;;;15.20;99.90;;;;;;5053825;28;20036;-72
2022/12/31 13:24:13;;;;;;;3.30;0.45;;;15.20;99.90;;;;;;5052530;28;20589;-72
2022/12/31 13:26:50;;;;;;;5.18;0.57;;;15.20;99.90;;;;;;5052673;28;20037;-72
2022/12/31 13:29:22;;;;;;;5.38;1.15;;;15.30;99.90;;;;;;5052981;28;20055;-72
2022/12/31 13:31:50;;;;;;;6.03;0.80;;;15.30;99.90;;;;;;5054575;28;20452;-72
2022/12/31 13:34:18;;;;;;;4.43;0.80;;;15.30;99.90;;;;;;5054325;28;20489;-72